Main page
METAR-TAF:

METAR-TAF

Airports :

Kolkata, India

Netaji Subhas Chandra Bose International Airport

latitude: 22-39N, longitude: 088-27E, elevation: 4 m

Current weather observation

The report was made 31 minutes ago, at 14:30 UTC
Wind 14 kt from the South/Southwest
Temperature 28°C
Humidity 79%
Pressure 1006 hPa
Visibility: 3000 m
Scattered clouds at a height of 2000 ft
haze

METAR: VECC 291430Z 21014KT 3000 HZ SCT020 28/24 Q1006 NOSIG

Time: 20:31 (15:01 UTC)

Forecast

The report was made 4 hours and 1 minutes ago, at 11:00 UTC
Forecast valid from 29 at 12 UTC to 30 at 18 UTC
Wind 7 kt from the South
Visibility: 3200 m
Few clouds at a height of 2000 ft
haze
Becoming
from 29 at 20 UTC to 29 at 22 UTC
Visibility: 2400 m
haze
Becoming
from 30 at 03 UTC to 30 at 05 UTC
Visibility: 3500 m
smoke
Becoming
from 30 at 16 UTC to 30 at 18 UTC
Wind 8 kt from the South/Southwest
Visibility: 2500 m
haze

TAF: VECC 291100Z 2912/3018 17007KT 3200 HZ FEW020 BECMG 2920/2922 2400 HZ BECMG 3003/3005 3500 FU BECMG 3016/3018 20008KT 2500 HZ

Weather observations and forecasts of more than 4000 airports (METAR and TAF reports).

The available stations are represented by yellow and red dots on the map.

Hover mouse over dot to see the name of the station.

Then click to see weather observations and forecasts.

To change the map : click on the green buttons with a black cross to zoom in, on the green button with a dash to zoom out, or on the green arrows for adjacent maps.


METAR-TAF: